createdAt,value
2023-05-25T00:01:05.005Z,52.20
2023-05-25T00:03:32.571Z,52.30
2023-05-25T00:06:01.767Z,52.30
2023-05-25T00:08:29.690Z,52.20
2023-05-25T00:10:56.989Z,52.10
2023-05-25T00:13:24.054Z,52.10
2023-05-25T00:15:51.240Z,52.10
2023-05-25T00:18:18.895Z,52.10
2023-05-25T00:20:47.696Z,52.20
2023-05-25T00:23:14.958Z,52.10
2023-05-25T00:25:42.249Z,52.20
2023-05-25T00:28:10.792Z,52.30
2023-05-25T00:30:37.811Z,52.20
2023-05-25T00:33:04.990Z,52.20
2023-05-25T00:35:32.037Z,53.00
2023-05-25T00:37:59.071Z,52.90
2023-05-25T00:40:26.179Z,52.40
2023-05-25T00:42:53.699Z,52.40
2023-05-25T00:45:20.920Z,52.30
2023-05-25T00:47:51.951Z,52.40
2023-05-25T00:50:27.118Z,52.40
2023-05-25T00:52:54.560Z,52.30
2023-05-25T00:55:23.649Z,52.40
2023-05-25T00:57:53.650Z,52.40
2023-05-25T01:00:21.373Z,52.20
2023-05-25T01:02:53.295Z,52.30
2023-05-25T01:05:21.859Z,52.20
2023-05-25T01:07:50.653Z,52.30
2023-05-25T01:10:22.295Z,52.40
2023-05-25T01:12:53.459Z,52.40
2023-05-25T01:15:20.983Z,52.60
2023-05-25T01:17:54.176Z,52.80
2023-05-25T01:20:21.349Z,52.90
2023-05-25T01:22:56.197Z,52.90
2023-05-25T01:25:38.347Z,53.60
2023-05-25T01:28:15.665Z,52.90
2023-05-25T01:30:45.827Z,53.50
2023-05-25T01:33:14.316Z,52.90
2023-05-25T01:35:42.446Z,52.90
2023-05-25T01:38:10.288Z,53.00
2023-05-25T01:40:40.205Z,53.10
2023-05-25T01:43:07.178Z,53.20
2023-05-25T01:45:34.676Z,53.20
2023-05-25T01:48:13.631Z,53.30
2023-05-25T01:51:16.507Z,53.40
2023-05-25T01:53:49.084Z,53.40
2023-05-25T01:56:17.292Z,53.40
2023-05-25T01:58:47.443Z,53.50
2023-05-25T02:01:17.211Z,53.50
2023-05-25T02:03:49.113Z,53.30
2023-05-25T02:06:16.969Z,53.40
2023-05-25T02:08:45.792Z,53.30
2023-05-25T02:11:16.433Z,53.30
2023-05-25T02:13:45.255Z,53.30
2023-05-25T02:16:12.298Z,53.20
2023-05-25T02:18:44.843Z,53.30
2023-05-25T02:21:12.423Z,54.10
2023-05-25T02:23:39.397Z,53.30
2023-05-25T02:26:06.596Z,53.20
2023-05-25T02:28:34.300Z,53.30
2023-05-25T02:31:01.616Z,53.30
2023-05-25T02:33:28.704Z,53.20
2023-05-25T02:35:57.572Z,53.20
2023-05-25T02:38:24.698Z,53.30
2023-05-25T02:40:51.751Z,53.30
2023-05-25T02:43:20.819Z,53.40
2023-05-25T02:45:47.828Z,53.50
2023-05-25T02:48:14.964Z,53.50
2023-05-25T02:50:42.129Z,53.60
2023-05-25T02:53:13.839Z,53.80
2023-05-25T02:55:43.832Z,53.80
2023-05-25T02:58:16.846Z,53.80
2023-05-25T03:00:55.291Z,53.80
2023-05-25T03:03:22.412Z,53.90
2023-05-25T03:05:49.411Z,54.00
2023-05-25T03:08:17.277Z,54.00
2023-05-25T03:10:44.584Z,54.00
2023-05-25T03:13:12.166Z,54.00
2023-05-25T03:15:40.261Z,54.10
2023-05-25T03:18:07.456Z,54.20
2023-05-25T03:20:37.949Z,54.20
2023-05-25T03:23:05.132Z,54.10
2023-05-25T03:25:33.563Z,54.10
2023-05-25T03:28:01.584Z,54.00
2023-05-25T03:30:29.756Z,54.00
2023-05-25T03:32:56.885Z,54.00
2023-05-25T03:35:26.381Z,54.00
2023-05-25T03:37:54.194Z,54.10
2023-05-25T03:40:21.302Z,54.20
2023-05-25T03:42:48.470Z,54.20
2023-05-25T03:45:15.726Z,54.20
2023-05-25T03:47:43.291Z,54.40
2023-05-25T03:50:11.462Z,54.50
2023-05-25T03:52:38.476Z,54.70
2023-05-25T03:55:06.057Z,54.90
2023-05-25T03:57:33.065Z,54.90
2023-05-25T04:00:00.049Z,54.90
2023-05-25T04:02:28.399Z,54.90
2023-05-25T04:04:57.481Z,55.10
2023-05-25T04:07:27.911Z,55.00
2023-05-25T04:09:55.179Z,55.20
2023-05-25T04:12:22.395Z,55.50
2023-05-25T04:14:49.435Z,55.60
2023-05-25T04:17:19.090Z,55.80
2023-05-25T04:19:46.560Z,56.00
2023-05-25T04:22:13.672Z,56.10
2023-05-25T04:24:41.691Z,56.40
2023-05-25T04:27:08.793Z,56.70
2023-05-25T04:29:37.467Z,56.80
2023-05-25T04:32:18.775Z,57.20
2023-05-25T04:34:50.965Z,57.40
2023-05-25T04:37:37.208Z,57.30
2023-05-25T04:40:11.292Z,57.60
2023-05-25T04:42:40.144Z,57.60
2023-05-25T04:45:12.016Z,57.60
2023-05-25T04:47:41.309Z,57.60
2023-05-25T04:50:11.013Z,57.50
2023-05-25T04:52:38.430Z,57.90
2023-05-25T04:55:06.206Z,57.70
2023-05-25T04:57:36.213Z,57.60
2023-05-25T05:00:03.936Z,57.80
2023-05-25T05:02:31.133Z,58.00
2023-05-25T05:04:59.143Z,57.80
2023-05-25T05:07:26.295Z,57.90
2023-05-25T05:09:53.461Z,58.10
2023-05-25T05:12:21.016Z,58.20
2023-05-25T05:14:51.246Z,58.20
2023-05-25T05:17:18.660Z,58.20
2023-05-25T05:19:46.001Z,58.30
2023-05-25T05:22:16.126Z,58.10
2023-05-25T05:24:45.096Z,58.10
2023-05-25T05:27:16.481Z,58.10
2023-05-25T05:29:47.148Z,58.20
2023-05-25T05:32:14.827Z,58.20
2023-05-25T05:34:41.987Z,58.10
2023-05-25T05:37:19.969Z,58.20
2023-05-25T05:39:47.317Z,58.30
2023-05-25T05:42:14.491Z,58.20
2023-05-25T05:44:41.519Z,58.20
2023-05-25T05:47:08.669Z,58.00
2023-05-25T05:49:37.952Z,57.90
2023-05-25T05:52:06.794Z,57.90
2023-05-25T05:54:34.240Z,57.80
2023-05-25T05:57:07.376Z,57.70
2023-05-25T05:59:34.576Z,57.70
2023-05-25T06:02:01.762Z,57.60
2023-05-25T06:04:29.241Z,57.40
2023-05-25T06:06:59.187Z,57.30
2023-05-25T06:09:26.676Z,57.30
2023-05-25T06:11:59.230Z,57.10
2023-05-25T06:14:28.610Z,57.00
2023-05-25T06:16:58.884Z,57.30
2023-05-25T06:19:26.202Z,57.30
2023-05-25T06:21:53.260Z,58.00
2023-05-25T06:24:21.448Z,57.20
2023-05-25T06:26:48.580Z,56.90
2023-05-25T06:29:17.265Z,56.80
2023-05-25T06:31:44.929Z,56.20
2023-05-25T06:34:12.908Z,56.00
2023-05-25T06:36:41.774Z,55.90
2023-05-25T06:39:10.279Z,56.10
2023-05-25T06:41:38.936Z,55.70
2023-05-25T06:44:06.652Z,55.70
2023-05-25T06:46:41.545Z,55.50
2023-05-25T06:49:09.560Z,55.20
2023-05-25T06:51:37.340Z,54.90
2023-05-25T06:54:04.534Z,55.00
2023-05-25T06:56:31.683Z,54.80
2023-05-25T06:58:58.906Z,54.90
2023-05-25T07:01:26.195Z,54.90
2023-05-25T07:03:53.202Z,54.10
2023-05-25T07:06:20.874Z,54.00
2023-05-25T07:08:48.158Z,53.40
2023-05-25T07:11:15.787Z,53.50
2023-05-25T07:13:42.852Z,53.90
2023-05-25T07:16:09.869Z,53.00
2023-05-25T07:18:40.842Z,53.10
2023-05-25T07:21:10.189Z,53.00
2023-05-25T07:23:38.471Z,51.70
2023-05-25T07:26:06.164Z,51.70
2023-05-25T07:28:33.476Z,51.40
2023-05-25T07:31:00.532Z,51.20
2023-05-25T07:33:27.674Z,51.30
2023-05-25T07:35:54.695Z,50.30
2023-05-25T07:38:22.010Z,49.00
2023-05-25T07:40:50.111Z,49.60
2023-05-25T07:43:17.167Z,49.40
2023-05-25T07:45:44.456Z,49.00
2023-05-25T07:48:11.835Z,46.70
2023-05-25T07:50:38.911Z,47.60
2023-05-25T07:53:05.976Z,47.00
2023-05-25T07:55:33.133Z,46.50
2023-05-25T07:58:00.349Z,46.10
2023-05-25T08:00:27.968Z,45.60
2023-05-25T08:02:56.363Z,45.70
2023-05-25T08:05:25.562Z,45.00
2023-05-25T08:07:52.542Z,44.10
2023-05-25T08:10:19.746Z,44.20
2023-05-25T08:12:49.579Z,43.70
2023-05-25T08:15:17.589Z,43.10
2023-05-25T08:17:45.013Z,41.70
2023-05-25T08:20:12.676Z,42.00
2023-05-25T08:22:39.774Z,40.80
2023-05-25T08:25:08.424Z,41.00
2023-05-25T08:27:36.453Z,40.50
2023-05-25T08:30:06.093Z,40.30
2023-05-25T08:32:35.344Z,39.90
2023-05-25T08:35:03.696Z,39.70
2023-05-25T08:37:32.337Z,39.00
2023-05-25T08:40:02.959Z,38.90
2023-05-25T08:42:30.359Z,39.10
2023-05-25T08:44:57.482Z,39.10
2023-05-25T08:47:25.003Z,38.80
2023-05-25T08:49:55.469Z,38.30
2023-05-25T08:52:26.620Z,38.20
2023-05-25T08:55:00.908Z,38.00
2023-05-25T08:57:41.083Z,37.60
2023-05-25T09:00:11.219Z,36.70
2023-05-25T09:03:18.130Z,35.20
2023-05-25T09:05:46.520Z,35.20
2023-05-25T09:08:14.738Z,35.70
2023-05-25T09:10:42.292Z,33.90
2023-05-25T09:13:21.097Z,34.40
2023-05-25T09:15:49.994Z,34.20
2023-05-25T09:18:17.150Z,33.90
2023-05-25T09:20:46.433Z,34.80
2023-05-25T09:23:15.961Z,34.80
2023-05-25T09:25:44.672Z,34.50
2023-05-25T09:30:42.061Z,35.40
2023-05-25T09:33:18.244Z,35.10
2023-05-25T09:35:46.652Z,34.80
2023-05-25T09:38:15.737Z,35.10
2023-05-25T09:40:43.686Z,35.30
2023-05-25T09:43:24.838Z,34.90
2023-05-25T09:46:01.450Z,34.30
2023-05-25T09:48:29.690Z,34.00
2023-05-25T09:50:57.493Z,33.30
2023-05-25T09:53:25.136Z,32.90
2023-05-25T09:55:54.306Z,33.10
2023-05-25T09:58:25.831Z,33.10
2023-05-25T10:00:56.239Z,33.40
2023-05-25T10:03:23.473Z,33.50
2023-05-25T10:05:51.960Z,33.80
2023-05-25T10:08:21.947Z,34.30
2023-05-25T10:10:50.293Z,34.40
2023-05-25T10:13:27.412Z,35.00
2023-05-25T10:15:55.114Z,35.10
2023-05-25T10:18:26.330Z,35.10
2023-05-25T10:21:00.917Z,34.00
2023-05-25T10:23:31.862Z,33.20
2023-05-25T10:26:00.600Z,32.90
2023-05-25T10:28:36.062Z,32.60
2023-05-25T10:31:04.291Z,32.20
2023-05-25T10:33:32.685Z,32.30
2023-05-25T10:36:10.027Z,32.60
2023-05-25T10:38:40.586Z,32.60
2023-05-25T10:41:10.493Z,32.20
2023-05-25T10:43:41.336Z,32.20
2023-05-25T10:46:08.937Z,32.30
2023-05-25T10:48:40.212Z,31.90
2023-05-25T10:51:09.379Z,31.00
2023-05-25T10:53:38.916Z,31.20
2023-05-25T10:56:10.871Z,31.50
2023-05-25T10:58:42.938Z,31.70
2023-05-25T11:01:12.624Z,31.30
2023-05-25T11:03:56.708Z,30.70
2023-05-25T11:06:48.023Z,30.00
2023-05-25T11:09:29.387Z,30.20
2023-05-25T11:11:56.355Z,31.30
2023-05-25T11:14:30.137Z,31.40
2023-05-25T11:17:15.201Z,31.00
2023-05-25T11:19:44.030Z,30.40
2023-05-25T11:22:19.295Z,30.00
2023-05-25T11:24:49.343Z,29.80
2023-05-25T11:27:21.922Z,29.50
2023-05-25T11:29:52.985Z,29.50
2023-05-25T11:32:21.382Z,29.60
2023-05-25T11:34:48.920Z,30.00
2023-05-25T11:37:23.508Z,30.00
2023-05-25T11:39:52.140Z,30.00
2023-05-25T11:42:27.888Z,29.40
2023-05-25T11:44:55.636Z,29.60
2023-05-25T11:47:25.066Z,29.10
2023-05-25T11:49:55.299Z,29.70
2023-05-25T11:52:23.434Z,29.50
2023-05-25T11:54:50.511Z,29.40
2023-05-25T11:57:26.883Z,29.40
2023-05-25T12:00:01.243Z,29.60
2023-05-25T12:02:37.216Z,30.40
2023-05-25T12:05:04.877Z,30.50
2023-05-25T12:07:32.146Z,29.90
2023-05-25T12:10:07.438Z,29.30
2023-05-25T12:12:46.540Z,29.30
2023-05-25T12:15:24.543Z,29.40
2023-05-25T12:17:52.658Z,29.30
2023-05-25T12:20:21.600Z,29.30
2023-05-25T12:22:49.397Z,28.10
2023-05-25T12:25:21.523Z,28.50
2023-05-25T12:27:48.924Z,28.30
2023-05-25T12:30:16.294Z,28.30
2023-05-25T12:33:02.808Z,28.60
2023-05-25T12:35:43.882Z,28.40
2023-05-25T12:38:15.762Z,28.90
2023-05-25T12:40:43.128Z,29.40
2023-05-25T12:43:14.870Z,29.40
2023-05-25T12:45:45.177Z,29.30
2023-05-25T12:48:12.780Z,29.50
2023-05-25T12:50:56.496Z,29.30
2023-05-25T12:53:23.611Z,29.60
2023-05-25T12:55:50.678Z,29.50
2023-05-25T12:58:30.680Z,29.10
2023-05-25T13:00:58.149Z,29.30
2023-05-25T13:03:25.242Z,29.40
2023-05-25T13:06:00.548Z,29.60
2023-05-25T13:08:29.189Z,29.40
2023-05-25T13:10:56.674Z,29.30
2023-05-25T13:13:24.797Z,29.00
2023-05-25T13:15:53.393Z,29.00
2023-05-25T13:18:20.497Z,29.20
2023-05-25T13:20:50.454Z,29.20
2023-05-25T13:23:18.967Z,29.10
2023-05-25T13:25:47.060Z,29.00
2023-05-25T13:28:13.949Z,28.70
2023-05-25T13:30:42.623Z,28.30
2023-05-25T13:33:10.973Z,28.70
2023-05-25T13:35:42.439Z,28.80
2023-05-25T13:38:11.029Z,28.40
2023-05-25T13:40:38.308Z,28.80
2023-05-25T13:43:05.469Z,28.90
2023-05-25T13:45:32.463Z,28.70
2023-05-25T13:47:59.726Z,28.60
2023-05-25T13:50:27.275Z,28.90
2023-05-25T13:52:54.490Z,29.70
2023-05-25T13:55:22.845Z,29.10
2023-05-25T13:57:49.842Z,29.20
2023-05-25T14:00:17.083Z,29.30
2023-05-25T14:02:44.347Z,29.20
2023-05-25T14:05:11.469Z,29.50
2023-05-25T14:07:39.866Z,29.50
2023-05-25T14:10:08.331Z,29.60
2023-05-25T14:12:36.845Z,29.60
2023-05-25T14:15:04.319Z,29.80
2023-05-25T14:17:31.476Z,30.10
2023-05-25T14:19:59.118Z,30.00
2023-05-25T14:22:27.990Z,30.20
2023-05-25T14:24:56.903Z,30.50
2023-05-25T14:27:24.116Z,30.00
2023-05-25T14:29:51.831Z,30.00
2023-05-25T14:32:19.821Z,30.00
2023-05-25T14:34:46.952Z,30.00
2023-05-25T14:37:14.038Z,29.80
2023-05-25T14:39:41.188Z,29.90
2023-05-25T14:42:08.323Z,29.90
2023-05-25T14:44:35.537Z,30.00
2023-05-25T14:47:03.109Z,30.30
2023-05-25T14:49:30.258Z,30.10
2023-05-25T14:51:57.415Z,30.40
2023-05-25T14:54:24.562Z,30.50
2023-05-25T14:56:51.679Z,30.20
2023-05-25T14:59:19.454Z,30.00
2023-05-25T15:01:46.850Z,29.50
2023-05-25T15:04:14.388Z,29.80
2023-05-25T15:06:42.783Z,29.70
2023-05-25T15:09:09.894Z,30.00
2023-05-25T15:11:36.987Z,30.10
2023-05-25T15:14:04.175Z,30.20
2023-05-25T15:16:31.877Z,30.40
2023-05-25T15:19:00.059Z,30.40
2023-05-25T15:21:27.439Z,30.70
2023-05-25T15:23:54.349Z,30.70
2023-05-25T15:26:21.712Z,30.80
2023-05-25T15:28:48.720Z,30.90
2023-05-25T15:31:16.927Z,31.00
2023-05-25T15:33:56.300Z,31.10
2023-05-25T15:36:25.587Z,31.20
2023-05-25T15:38:52.739Z,31.30
2023-05-25T15:41:19.718Z,31.20
2023-05-25T15:43:58.559Z,31.10
2023-05-25T15:46:26.045Z,31.30
2023-05-25T15:48:54.279Z,31.40
2023-05-25T15:51:21.617Z,31.10
2023-05-25T15:53:49.237Z,31.10
2023-05-25T15:56:17.076Z,31.40
2023-05-25T15:58:47.203Z,31.50
2023-05-25T16:01:14.492Z,31.40
2023-05-25T16:03:43.253Z,31.40
2023-05-25T16:06:11.171Z,31.50
2023-05-25T16:08:38.188Z,31.50
2023-05-25T16:11:05.532Z,31.70
2023-05-25T16:13:32.607Z,31.70
2023-05-25T16:15:59.629Z,32.00
2023-05-25T16:18:26.748Z,31.90
2023-05-25T16:20:57.712Z,31.90
2023-05-25T16:23:25.231Z,31.90
2023-05-25T16:25:52.334Z,32.10
2023-05-25T16:28:20.438Z,32.10
2023-05-25T16:30:47.600Z,32.00
2023-05-25T16:33:14.921Z,32.10
2023-05-25T16:35:42.220Z,32.20
2023-05-25T16:38:09.360Z,32.30
2023-05-25T16:40:37.183Z,32.60
2023-05-25T16:43:04.261Z,32.50
2023-05-25T16:45:31.391Z,32.40
2023-05-25T16:47:58.437Z,32.50
2023-05-25T16:50:25.668Z,32.50
2023-05-25T16:52:52.881Z,32.50
2023-05-25T16:55:19.883Z,32.50
2023-05-25T16:57:46.935Z,32.60
2023-05-25T17:00:14.497Z,32.60
2023-05-25T17:02:42.605Z,32.60
2023-05-25T17:05:10.109Z,32.60
2023-05-25T17:07:38.009Z,32.90
2023-05-25T17:10:07.106Z,33.00
2023-05-25T17:12:34.215Z,32.90
2023-05-25T17:15:01.236Z,33.00
2023-05-25T17:17:28.914Z,33.10
2023-05-25T17:19:56.003Z,33.10
2023-05-25T17:22:23.361Z,33.20
2023-05-25T17:24:50.574Z,33.20
2023-05-25T17:27:19.607Z,33.30
2023-05-25T17:29:46.790Z,33.10
2023-05-25T17:32:14.012Z,33.10
2023-05-25T17:34:42.129Z,33.10
2023-05-25T17:37:09.312Z,33.30
2023-05-25T17:39:36.738Z,33.30
2023-05-25T17:42:06.810Z,33.30
2023-05-25T17:44:33.935Z,33.40
2023-05-25T17:47:01.038Z,33.50
2023-05-25T17:49:28.089Z,33.70
2023-05-25T17:51:55.194Z,33.80
2023-05-25T17:54:25.909Z,33.80
2023-05-25T17:56:53.821Z,34.00
2023-05-25T17:59:20.942Z,34.10
2023-05-25T18:01:48.055Z,34.30
2023-05-25T18:04:15.458Z,34.40
2023-05-25T18:06:42.936Z,34.50
2023-05-25T18:09:10.030Z,34.70
2023-05-25T18:11:37.121Z,35.00
2023-05-25T18:14:07.959Z,35.20
2023-05-25T18:16:39.713Z,35.60
2023-05-25T18:19:07.247Z,35.60
2023-05-25T18:21:34.391Z,35.70
2023-05-25T18:24:01.466Z,36.00
2023-05-25T18:26:28.639Z,36.30
2023-05-25T18:28:55.992Z,36.30
2023-05-25T18:31:23.182Z,36.30
2023-05-25T18:33:50.331Z,36.50
2023-05-25T18:36:17.447Z,36.70
2023-05-25T18:38:44.560Z,36.70
2023-05-25T18:41:11.615Z,36.90
2023-05-25T18:43:38.666Z,36.90
2023-05-25T18:46:05.731Z,37.10
2023-05-25T18:48:32.915Z,37.20
2023-05-25T18:51:00.906Z,37.20
2023-05-25T18:53:28.011Z,37.30
2023-05-25T18:55:55.195Z,37.40
2023-05-25T18:58:22.481Z,37.60
2023-05-25T19:00:49.589Z,37.70
2023-05-25T19:03:17.178Z,37.70
2023-05-25T19:05:45.714Z,37.90
2023-05-25T19:08:13.172Z,37.90
2023-05-25T19:10:41.798Z,38.00
2023-05-25T19:13:08.880Z,38.20
2023-05-25T19:15:36.321Z,38.30
2023-05-25T19:18:04.504Z,38.50
2023-05-25T19:20:35.677Z,38.60
2023-05-25T19:23:02.805Z,38.80
2023-05-25T19:25:30.119Z,38.90
2023-05-25T19:27:58.723Z,38.90
2023-05-25T19:30:25.976Z,39.00
2023-05-25T19:32:53.128Z,39.10
2023-05-25T19:35:20.236Z,39.30
2023-05-25T19:37:47.441Z,39.30
2023-05-25T19:40:14.446Z,39.50
2023-05-25T19:42:41.830Z,39.60
2023-05-25T19:45:09.267Z,39.60
2023-05-25T19:47:36.502Z,39.80
2023-05-25T19:50:03.674Z,39.80
2023-05-25T19:52:31.132Z,39.90
2023-05-25T19:55:04.836Z,40.00
2023-05-25T19:57:31.999Z,40.20
2023-05-25T20:00:00.294Z,40.30
2023-05-25T20:02:27.751Z,40.40
2023-05-25T20:04:55.001Z,40.50
2023-05-25T20:07:22.215Z,40.60
2023-05-25T20:09:49.394Z,40.70
2023-05-25T20:12:16.816Z,40.90
2023-05-25T20:14:44.173Z,41.00
2023-05-25T20:17:11.441Z,41.10
2023-05-25T20:19:39.107Z,41.10
2023-05-25T20:22:08.348Z,41.40
2023-05-25T20:24:35.927Z,41.60
2023-05-25T20:27:06.143Z,41.60
2023-05-25T20:29:34.003Z,41.70
2023-05-25T20:32:01.292Z,41.90
2023-05-25T20:34:28.318Z,42.00
2023-05-25T20:36:55.481Z,42.30
2023-05-25T20:39:23.548Z,42.40
2023-05-25T20:41:50.661Z,42.70
2023-05-25T20:44:17.844Z,42.90
2023-05-25T20:46:44.990Z,42.90
2023-05-25T20:49:12.054Z,43.00
2023-05-25T20:51:39.154Z,43.10
2023-05-25T20:54:06.422Z,43.20
2023-05-25T20:56:33.538Z,43.30
2023-05-25T20:59:00.429Z,43.50
2023-05-25T21:01:27.542Z,43.60
2023-05-25T21:03:54.668Z,43.80
2023-05-25T21:06:22.624Z,43.90
2023-05-25T21:08:49.928Z,43.90
2023-05-25T21:11:17.212Z,44.00
2023-05-25T21:13:44.302Z,44.30
2023-05-25T21:16:11.901Z,44.40
2023-05-25T21:18:38.952Z,44.40
2023-05-25T21:21:06.161Z,44.40
2023-05-25T21:23:33.213Z,44.50
2023-05-25T21:26:00.243Z,44.60
2023-05-25T21:28:27.280Z,44.70
2023-05-25T21:30:54.381Z,44.70
2023-05-25T21:33:22.246Z,44.80
2023-05-25T21:35:49.369Z,44.90
2023-05-25T21:38:16.408Z,45.00
2023-05-25T21:40:43.568Z,45.10
2023-05-25T21:43:10.869Z,45.30
2023-05-25T21:45:37.943Z,45.40
2023-05-25T21:48:05.127Z,45.60
2023-05-25T21:50:32.267Z,45.60
2023-05-25T21:52:59.242Z,45.70
2023-05-25T21:55:27.029Z,45.80
2023-05-25T21:57:54.068Z,45.80
2023-05-25T22:00:21.517Z,45.90
2023-05-25T22:02:48.961Z,46.00
2023-05-25T22:05:16.056Z,46.20
2023-05-25T22:07:43.298Z,46.30
2023-05-25T22:10:10.533Z,46.20
2023-05-25T22:12:37.556Z,46.30
2023-05-25T22:15:05.981Z,46.40
2023-05-25T22:17:33.031Z,46.50
2023-05-25T22:22:34.297Z,46.60
2023-05-25T22:25:01.474Z,46.80
2023-05-25T22:27:28.518Z,46.80
2023-05-25T22:29:55.684Z,46.70
2023-05-25T22:32:22.756Z,46.80
2023-05-25T22:34:49.865Z,47.00
2023-05-25T22:37:17.535Z,47.00
2023-05-25T22:39:44.732Z,47.10
2023-05-25T22:42:11.819Z,47.90
2023-05-25T22:44:39.031Z,47.30
2023-05-25T22:47:06.668Z,47.40
2023-05-25T22:49:42.041Z,47.60
2023-05-25T22:52:12.320Z,47.60
2023-05-25T22:54:39.335Z,47.50
2023-05-25T22:57:06.890Z,47.60
2023-05-25T22:59:33.914Z,47.70
2023-05-25T23:02:01.316Z,47.80
2023-05-25T23:04:28.497Z,47.90
2023-05-25T23:06:55.529Z,47.90
2023-05-25T23:09:22.989Z,47.90
2023-05-25T23:11:50.001Z,48.00
2023-05-25T23:14:17.087Z,48.00
2023-05-25T23:16:44.618Z,48.10
2023-05-25T23:19:11.752Z,48.20
2023-05-25T23:21:39.340Z,48.40
2023-05-25T23:24:06.727Z,48.40
2023-05-25T23:26:33.760Z,48.50
2023-05-25T23:29:01.322Z,48.60
2023-05-25T23:31:28.479Z,48.60
2023-05-25T23:33:56.060Z,48.70
2023-05-25T23:36:26.082Z,48.80
2023-05-25T23:38:53.316Z,48.90
2023-05-25T23:41:20.413Z,49.00
2023-05-25T23:43:48.056Z,49.10
2023-05-25T23:46:16.389Z,49.10
2023-05-25T23:48:44.774Z,49.20
2023-05-25T23:51:11.778Z,49.10
2023-05-25T23:53:39.190Z,49.20
2023-05-25T23:56:06.511Z,49.30
2023-05-25T23:58:33.643Z,49.30
